LTFJLTCC

Guest
Details From LTFJ - SABIHA GOKCEN
To LTCC - DIYARBAKIR
Flight Number -
Tags generated
Created
Modified
Stats Distance 539 nm / 998 km
Max Altitude 35,000 ft / 10,668 m
Waypoints 9
Social Downloads 1
Likes 0
Share VATSIM

Download

Looking for another format? Having issues loading an existing format? Contact us
Advertisement - Login to hide

Notes

Basic altitude profile: - Ascent Rate: 2500ft/min - Ascent Speed: 250kts - Cruise Altitude: 37000ft - Cruise Speed: 420kts - Descent Rate: 1500ft/min - Descent Speed: 250kts Options: - Use NATs: yes - Use PACOTS: yes - Use low airways: yes - Use high airways: yes

Route

LTFJ TOKER UG8 GEM UW73 ERH LTCC

ID Type Via Altitude Latitude Longitude Leg Dist Tot Dist Heading (true) Name
O LTFJ APT - 0 ft / 0 m 40.89855˚ 29.30922˚ - 0 nm - SABIHA GOKCEN
TOKER FIX - 25,900 ft / 7,894 m 40.31333˚ 30.77222˚ 75 nm 75 nm 117° / 118° -
PETAR FIX UG8 (AWY-HI) 35,000 ft / 10,668 m 40.17222˚ 32.08194˚ 60 nm 136 nm 98° / 98° -
BAG VOR UG8 (AWY-HI) 35,000 ft / 10,668 m 40.06953˚ 32.81039˚ 34 nm 170 nm 100° / 101° BAGLUM VOR-DME
KUBER FIX UG8 (AWY-HI) 35,000 ft / 10,668 m 39.83333˚ 33.61111˚ 39 nm 209 nm 111° / 111° -
MARTI FIX UG8 (AWY-HI) 35,000 ft / 10,668 m 39.40167˚ 35.18278˚ 77 nm 286 nm 109° / 110° -
GEM VOR UG8 (AWY-HI) 35,000 ft / 10,668 m 39.15528˚ 36.02917˚ 42 nm 328 nm 110° / 111° GEMEREK VOR-DME
ERH NDB UW73 (AWY-HI) 27,500 ft / 8,382 m 38.46333˚ 38.11222˚ 105 nm 434 nm 112° / 114° ERHAC NDB
O LTCC APT - 0 ft / 0 m 37.89390˚ 40.20102˚ 104 nm 539 nm 108° / 110° DIYARBAKIR

Altitude Profile

Advertisement - Login to hide

Weather


0- 5 10 15 20 25 30 35+ Temperature / ° C

Clouds and Precipitation
Forecast for 2017-12-16 18:00 UTC. Updated 21 minutes ago

Ground ~20,000 ft ~40,000 ft Winds

LTFJ

Details ICAO LTFJ (SAW)
Name SABIHA GOKCEN
Region Turkey
Timezone Europe/Istanbul (UTC+3.0)
Stats Elevation 312 ft / 95 m (AMSL)
Location 40.898552° 29.309221°
Runways 1
Magnetic Variation 5.474° E

METAR

LTFJ 161520Z 24009KT CAVOK 16/09 Q1012 NOSIG

Decode

TAF

Not found

Departure Runways

ID Width Length Bearing (true) Bearing (mag) Surface Threshold Offset Overrun Length
06 148 ft / 45 m 9,690 ft / 2,953 m 64.01° 58.54° Concrete 0 ft / 0 m 197 ft / 60 m
24 148 ft / 45 m 9,690 ft / 2,953 m 244.03° 238.56° Concrete 0 ft / 0 m 197 ft / 60 m

LTCC

Details ICAO LTCC (DIY)
Name DIYARBAKIR
Region Turkey
Timezone Europe/Istanbul (UTC+3.0)
Stats Elevation 2,251 ft / 686 m (AMSL)
Location 37.893898° 40.201017°
Runways 1
Magnetic Variation 5.639° E

METAR

LTCC 161520Z 00000KT CAVOK 07/M01 Q1023 NOSIG

Decode

TAF

Not found

Destination Runways

ID Width Length Bearing (true) Bearing (mag) Surface Threshold Offset Overrun Length
16 148 ft / 45 m 11,663 ft / 3,555 m 162.66° 157.02° Concrete 0 ft / 0 m 507 ft / 155 m
34 148 ft / 45 m 11,663 ft / 3,555 m 342.67° 337.03° Concrete 0 ft / 0 m 495 ft / 151 m

Popular Alternatives